Time;durP1;ratioP1;P1;durP2;ratioP2;P2;SDS_P1;SDS_P2;PMS_P1;PMS_P2;Temp;Humidity;BMP_temperature;BMP_pressure;BME280_temperature;BME280_humidity;BME280_pressure;Samples;Min_cycle;Max_cycle;Signal;HPM_P1;HPM_P2
2021/12/10 00:01:01;;;;;;;136.80;63.38;;;;;;;0.11;77.99;99113.28;2199371;80;27703;-72
2021/12/10 00:04:04;;;;;;;148.95;70.52;;;;;;;0.11;77.94;99113.72;2187452;80;28638;-72
2021/12/10 00:07:17;;;;;;;142.75;68.55;;;;;;;0.13;78.06;99104.89;2186878;80;31954;-71
2021/12/10 00:10:23;;;;;;;142.53;66.90;;;;;;;0.14;78.03;99087.31;2181154;80;33884;-71
2021/12/10 00:13:25;;;;;;;136.57;64.22;;;;;;;0.17;77.93;99081.12;2189933;80;29378;-71
2021/12/10 00:16:34;;;;;;;134.05;63.52;;;;;;;0.17;78.00;99081.12;2172569;80;27691;-71
2021/12/10 00:19:44;;;;;;;138.43;65.45;;;;;;;0.16;77.93;99069.70;2164929;80;29556;-72
2021/12/10 00:22:51;;;;;;;144.43;66.15;;;;;;;0.18;77.93;99067.02;2159897;80;31206;-71
2021/12/10 00:25:52;;;;;;;136.97;66.15;;;;;;;0.19;78.02;99048.99;2172422;80;33009;-71
2021/12/10 00:29:01;;;;;;;141.88;64.82;;;;;;;0.21;77.98;99039.28;2152173;80;29334;-72
2021/12/10 00:32:04;;;;;;;134.87;64.10;;;;;;;0.24;78.07;99045.79;2186353;79;27758;-72
2021/12/10 00:35:22;;;;;;;138.35;65.50;;;;;;;0.27;78.01;99045.71;2161393;80;28654;-72
2021/12/10 00:38:25;;;;;;;143.68;65.05;;;;;;;0.27;77.91;99049.19;2186824;80;31035;-72
2021/12/10 00:41:28;;;;;;;149.97;67.92;;;;;;;0.24;77.67;99045.35;2197234;80;33131;-72
2021/12/10 00:44:30;;;;;;;140.43;64.62;;;;;;;0.19;77.62;99047.67;2188200;80;29345;-69
2021/12/10 00:47:32;;;;;;;142.28;67.37;;;;;;;0.17;77.74;99054.78;2189237;80;27711;-67
2021/12/10 00:50:39;;;;;;;151.00;70.90;;;;;;;0.16;77.80;99047.78;2195788;80;28653;-69
2021/12/10 00:53:42;;;;;;;150.85;67.53;;;;;;;0.15;77.77;99036.38;2173109;80;31079;-71
2021/12/10 00:56:44;;;;;;;155.37;67.32;;;;;;;0.17;77.92;99025.34;2176590;80;32979;-65
2021/12/10 00:59:48;;;;;;;160.43;71.37;;;;;;;;;;2196401;80;30362;-66
2021/12/10 01:02:51;;;;;;;146.10;67.95;;;;;;;0.23;78.09;99011.14;2184066;80;27712;-68
2021/12/10 01:05:56;;;;;;;154.55;70.08;;;;;;;0.24;77.99;99014.19;2150928;81;28714;-68
2021/12/10 01:09:02;;;;;;;146.68;68.45;;;;;;;0.26;78.04;98990.83;2164506;80;31040;-68
2021/12/10 01:12:09;;;;;;;159.22;70.87;;;;;;;0.30;78.06;98996.90;2191880;80;32982;-68
2021/12/10 01:25:31;;;;;;;151.63;67.80;;;;;;;0.28;77.94;98996.92;2189287;80;34633;-72
2021/12/10 01:28:17;;;;;;;154.05;70.83;;;;;;;0.32;77.99;98993.77;2196347;80;32959;-70
2021/12/10 01:31:19;;;;;;;151.82;69.10;;;;;;;0.30;77.85;99003.48;2202781;80;30094;-69
2021/12/10 01:34:22;;;;;;;146.60;67.82;;;;;;;0.27;77.75;98996.98;2194879;80;27696;-69
2021/12/10 01:37:25;;;;;;;162.65;71.57;;;;;;;0.27;77.84;98982.03;2193757;80;30066;-71
2021/12/10 01:40:29;;;;;;;154.75;72.17;;;;;;;0.27;77.89;98975.44;2197021;80;31208;-69
2021/12/10 01:43:36;;;;;;;157.72;68.95;;;;;;;0.27;77.91;98963.59;2191000;80;33810;-72
2021/12/10 01:46:40;;;;;;;159.43;70.72;;;;;;;0.30;77.99;98967.92;2181053;80;29474;-74
2021/12/10 01:49:43;;;;;;;155.30;72.08;;;;;;;0.33;78.04;98963.89;2179896;80;27744;-70
2021/12/10 01:52:50;;;;;;;150.20;70.55;;;;;;;0.36;78.00;98965.09;2182030;80;28675;-67
2021/12/10 01:55:56;;;;;;;151.20;68.02;;;;;;;0.36;77.77;98962.45;2190702;80;31150;-70
2021/12/10 01:59:00;;;;;;;150.93;69.62;;;;;;;0.36;77.81;98961.14;2181656;80;33763;-67
2021/12/10 02:02:16;;;;;;;149.12;67.08;;;;;;;0.34;77.72;98956.84;2182211;80;29314;-71
2021/12/10 02:05:19;;;;;;;151.12;68.57;;;;;;;0.36;77.86;98959.82;2166900;80;28274;-69
2021/12/10 02:08:21;;;;;;;149.18;68.80;;;;;;;0.33;77.76;98963.02;2186899;80;28754;-69
2021/12/10 02:11:23;;;;;;;154.63;70.87;;;;;;;0.30;77.73;98956.92;2181681;80;31488;-70
2021/12/10 02:14:25;;;;;;;158.18;71.35;;;;;;;0.30;77.74;98960.02;2187834;80;32997;-68
2021/12/10 02:17:32;;;;;;;162.45;70.28;;;;;;;0.29;77.79;98953.03;2184858;80;28722;-68
2021/12/10 02:21:03;;;;;;;150.80;69.25;;;;;;;0.29;77.87;98956.98;2127977;83;27702;-71
2021/12/10 02:24:06;;;;;;;149.12;66.65;;;;;;;0.33;78.00;98949.84;2159192;80;28910;-68
2021/12/10 02:27:08;;;;;;;147.62;68.67;;;;;;;0.33;77.90;98941.50;2185094;80;32215;-66
2021/12/10 02:30:12;;;;;;;155.22;69.40;;;;;;;0.34;77.89;98931.34;2168039;80;32968;-67
2021/12/10 02:33:15;;;;;;;158.45;68.72;;;;;;;0.30;77.68;98932.37;2183079;80;29335;-67
2021/12/10 02:36:17;;;;;;;151.42;69.27;;;;;;;0.28;77.75;98925.81;2113858;83;27667;-67
2021/12/10 02:39:24;;;;;;;162.53;71.37;;;;;;;0.27;77.84;98925.87;2191316;80;28667;-67
2021/12/10 02:42:26;;;;;;;152.55;69.30;;;;;;;0.28;77.89;98933.71;2193189;80;31044;-69
2021/12/10 02:45:28;;;;;;;154.00;70.92;;;;;;;0.29;77.86;98924.05;2200672;80;33010;-68
2021/12/10 02:48:31;;;;;;;154.15;71.47;;;;;;;0.27;77.81;98933.30;2198400;80;30284;-68
2021/12/10 02:51:35;;;;;;;157.90;69.90;;;;;;;0.26;77.92;98942.58;2176939;80;27700;-67
2021/12/10 02:54:38;;;;;;;160.50;71.33;;;;;;;0.28;77.94;98935.50;2195950;80;28655;-67
2021/12/10 02:57:40;;;;;;;156.80;70.40;;;;;;;0.29;77.93;98938.07;2199614;80;31897;-67
2021/12/10 03:00:53;;;;;;;150.57;69.92;;;;;;;0.32;77.95;98944.16;2191588;81;33026;-71
2021/12/10 03:03:55;;;;;;;151.70;70.75;;;;;;;0.35;78.04;98941.44;2196617;80;29390;-73
2021/12/10 03:06:59;;;;;;;158.25;71.85;;;;;;;0.33;77.89;98941.50;2183271;80;28183;-72
2021/12/10 03:10:02;;;;;;;153.55;71.02;;;;;;;0.35;78.03;98925.17;2182223;80;29433;-72
2021/12/10 03:13:06;;;;;;;147.57;70.12;;;;;;;0.36;77.99;98932.16;2182573;80;32209;-67
2021/12/10 03:16:08;;;;;;;165.77;74.50;;;;;;;0.34;77.82;98931.34;2179094;80;32818;-69
2021/12/10 03:19:10;;;;;;;158.75;70.83;;;;;;;0.38;77.95;98928.19;2186294;80;30527;-69
2021/12/10 03:22:11;;;;;;;157.30;73.80;;;;;;;0.40;78.02;98913.20;2192677;80;27707;-69
2021/12/10 03:25:16;;;;;;;151.72;73.40;;;;;;;0.43;78.03;98918.34;2192005;80;28691;-69
2021/12/10 03:28:17;;;;;;;160.22;72.95;;;;;;;0.44;77.91;98926.22;2188890;80;31233;-67
2021/12/10 03:31:21;;;;;;;156.63;74.00;;;;;;;0.45;77.98;98921.80;2182152;80;32958;-67
2021/12/10 03:34:23;;;;;;;150.32;72.20;;;;;;;0.44;77.73;98924.91;2197423;80;29368;-70
2021/12/10 03:37:26;;;;;;;148.50;70.17;;;;;;;0.43;77.90;98929.77;2196480;80;28155;-66
2021/12/10 03:40:29;;;;;;;164.37;73.35;;;;;;;0.46;77.90;98923.53;2186211;80;29487;-67
2021/12/10 03:43:31;;;;;;;165.05;74.25;;;;;;;0.45;77.77;98913.90;2195308;80;31279;-67
2021/12/10 03:46:33;;;;;;;148.07;71.80;;;;;;;0.45;77.91;98904.23;2191034;80;34132;-73
2021/12/10 03:49:37;;;;;;;161.25;70.60;;;;;;;0.45;77.89;98896.77;2188572;80;30025;-74
2021/12/10 03:52:39;;;;;;;166.92;73.90;;;;;;;0.46;77.89;98887.96;2197717;81;27641;-71
2021/12/10 03:55:45;;;;;;;151.85;71.70;;;;;;;0.45;77.88;98895.02;2183826;80;29697;-70
2021/12/10 03:58:50;;;;;;;155.75;71.53;;;;;;;0.47;77.89;98907.28;2166774;81;27831;-76
2021/12/10 04:01:56;;;;;;;159.18;71.67;;;;;;;0.49;77.90;98892.30;2187892;80;34007;-75
2021/12/10 04:04:58;;;;;;;159.72;73.87;;;;;;;0.49;77.87;98887.02;2144839;81;29694;-74
2021/12/10 04:08:07;;;;;;;167.22;73.67;;;;;;;0.50;77.93;98886.12;2162467;82;28017;-75
2021/12/10 04:11:10;;;;;;;177.17;74.35;;;;;;;0.51;77.86;98883.42;2159213;82;29402;-75
2021/12/10 04:14:11;;;;;;;162.55;75.22;;;;;;;0.51;77.85;98882.54;2122762;83;31743;-75
2021/12/10 04:17:21;;;;;;;164.43;75.55;;;;;;;0.52;77.85;98870.66;2126455;83;34331;-75
2021/12/10 04:20:26;;;;;;;162.75;73.47;;;;;;;0.53;77.90;98864.91;2121611;83;29341;-76
2021/12/10 04:23:28;;;;;;;154.60;76.42;;;;;;;0.55;77.86;98861.78;2137119;83;27572;-75
2021/12/10 04:26:30;;;;;;;170.22;74.67;;;;;;;0.54;77.88;98859.61;2134730;83;28845;-74
2021/12/10 04:29:32;;;;;;;174.15;78.25;;;;;;;0.55;77.85;98853.88;2139256;83;33158;-75
2021/12/10 04:32:34;;;;;;;163.10;76.02;;;;;;;0.56;77.82;98858.23;2121956;83;33811;-72
2021/12/10 04:35:36;;;;;;;168.00;77.05;;;;;;;0.56;77.79;98857.80;2107080;83;30380;-75
2021/12/10 04:38:39;;;;;;;171.05;75.95;;;;;;;0.56;77.87;98860.43;2128179;82;27737;-75
2021/12/10 04:41:41;;;;;;;167.10;74.90;;;;;;;0.58;77.83;98856.41;2134585;82;28656;-74
2021/12/10 04:44:43;;;;;;;167.43;74.00;;;;;;;0.58;77.87;98855.09;2121882;83;31235;-74
2021/12/10 04:47:46;;;;;;;168.70;77.50;;;;;;;0.61;77.87;98841.83;2138820;82;32978;-74
2021/12/10 04:50:49;;;;;;;166.57;74.55;;;;;;;0.62;77.81;98849.27;2124839;83;29338;-74
2021/12/10 04:53:53;;;;;;;170.70;78.15;;;;;;;0.63;77.84;98853.19;2121436;83;27721;-75
2021/12/10 04:57:00;;;;;;;172.95;76.42;;;;;;;0.64;77.79;98847.01;2092621;83;28685;-76
2021/12/10 05:00:06;;;;;;;159.25;76.07;;;;;;;0.63;77.64;98854.50;2129078;82;31040;-74
2021/12/10 05:03:08;;;;;;;168.13;77.70;;;;;;;0.61;77.53;98855.00;2128348;80;32970;-75
2021/12/10 05:06:10;;;;;;;166.73;78.75;;;;;;;0.56;77.50;98859.11;2207659;80;30342;-76
2021/12/10 05:09:14;;;;;;;176.85;77.72;;;;;;;0.55;77.50;98865.73;2200346;80;27674;-75
2021/12/10 05:12:16;;;;;;;176.93;79.12;;;;;;;0.49;77.42;98869.90;2127724;81;29509;-75
2021/12/10 05:15:23;;;;;;;165.85;78.52;;;;;;;0.43;77.35;98859.07;2172173;80;31115;-74
2021/12/10 05:18:30;;;;;;;173.90;79.62;;;;;;;0.39;77.44;98851.73;2198620;80;33076;-71
2021/12/10 05:21:35;;;;;;;176.00;81.95;;;;;;;0.40;77.63;98849.50;2199119;80;29369;-72
2021/12/10 05:24:37;;;;;;;195.90;89.90;;;;;;;0.42;77.57;98855.59;2204621;80;27591;-75
2021/12/10 05:27:42;;;;;;;184.50;86.65;;;;;;;0.43;77.75;98850.73;2198987;80;28717;-75
2021/12/10 05:30:46;;;;;;;178.62;79.92;;;;;;;0.44;77.76;98856.41;2186452;80;31910;-72
2021/12/10 05:33:48;;;;;;;174.38;80.90;;;;;;;0.44;77.54;98855.09;2211479;80;33754;-71
2021/12/10 05:36:49;;;;;;;181.50;82.70;;;;;;;0.44;77.56;98851.58;2213895;80;29317;-71
2021/12/10 05:39:51;;;;;;;177.05;82.67;;;;;;;0.43;77.56;98856.44;2160375;81;27736;-72
2021/12/10 05:42:53;;;;;;;165.73;76.77;;;;;;;0.41;77.53;98853.86;2205674;80;28728;-72
2021/12/10 05:45:55;;;;;;;187.75;84.03;;;;;;;0.41;77.59;98861.77;2208922;80;31049;-71
2021/12/10 05:48:57;;;;;;;186.60;80.55;;;;;;;0.36;77.38;98853.61;2201249;80;33750;-73
2021/12/10 05:51:58;;;;;;;180.30;82.50;;;;;;;0.32;77.42;98850.22;2199147;80;29322;-71
2021/12/10 05:55:00;;;;;;;189.67;85.55;;;;;;;0.24;77.40;98847.82;2198590;80;27699;-72
2021/12/10 05:58:03;;;;;;;178.68;84.37;;;;;;;0.22;77.50;98844.38;2211309;79;29463;-73
2021/12/10 06:01:10;;;;;;;176.85;83.40;;;;;;;0.22;77.69;98848.32;2203912;80;31893;-73
2021/12/10 06:04:11;;;;;;;186.18;83.52;;;;;;;0.22;77.69;98844.81;2202476;80;32973;-74
2021/12/10 06:07:13;;;;;;;182.37;83.65;;;;;;;0.21;77.68;98848.34;2197090;80;30204;-74
2021/12/10 06:10:18;;;;;;;181.30;83.22;;;;;;;0.18;77.69;98851.95;2190847;80;27703;-73
2021/12/10 06:13:22;;;;;;;190.12;86.20;;;;;;;0.17;77.56;98859.91;2187691;80;28734;-73
2021/12/10 06:16:24;;;;;;;192.47;86.32;;;;;;;0.18;77.79;98860.28;2205494;80;31009;-74
2021/12/10 06:19:26;;;;;;;184.55;83.67;;;;;;;0.19;77.72;98859.38;2199370;80;33764;-74
2021/12/10 06:22:27;;;;;;;176.07;82.30;;;;;;;0.17;77.69;98857.27;2203812;80;29314;-74
2021/12/10 06:25:32;;;;;;;197.78;85.25;;;;;;;0.09;77.49;98858.80;2194836;80;27723;-74
2021/12/10 06:28:34;;;;;;;184.55;84.77;;;;;;;0.05;77.56;98856.72;2187399;80;28582;-73
2021/12/10 06:31:37;;;;;;;187.25;86.35;;;;;;;0.05;77.73;98858.03;2142733;81;31044;-71
2021/12/10 06:34:39;;;;;;;196.90;87.88;;;;;;;0.06;77.84;98859.76;2196248;80;33770;-70
2021/12/10 06:37:42;;;;;;;181.75;84.30;;;;;;;0.09;77.91;98861.42;2204330;79;30742;-68
2021/12/10 06:40:46;;;;;;;187.27;84.83;;;;;;;0.06;77.66;98863.70;2215845;80;27671;-73
2021/12/10 06:43:48;;;;;;;182.02;84.47;;;;;;;0.04;77.84;98865.52;2205233;80;29494;-73
2021/12/10 06:46:53;;;;;;;199.55;90.80;;;;;;;0.09;77.98;98860.11;2214347;80;31893;-74
2021/12/10 06:49:55;;;;;;;203.02;88.90;;;;;;;0.11;77.87;98862.25;2211303;80;33758;-68
2021/12/10 06:52:58;;;;;;;193.87;86.57;;;;;;;0.10;77.69;98850.87;2197663;80;30516;-71
2021/12/10 06:56:00;;;;;;;183.03;88.00;;;;;;;0.11;77.91;98854.34;2203820;80;28203;-71
2021/12/10 06:59:04;;;;;;;189.57;88.92;;;;;;;0.08;77.62;98841.30;2199113;80;28641;-69
2021/12/10 07:02:06;;;;;;;200.35;88.85;;;;;;;0.07;77.77;98833.84;2197683;80;31827;-71
2021/12/10 07:05:08;;;;;;;195.30;86.60;;;;;;;0.06;77.57;98837.38;2214469;80;33176;-73
2021/12/10 07:08:10;;;;;;;195.22;87.42;;;;;;;0.07;77.69;98839.58;2210404;79;29362;-73
2021/12/10 07:11:15;;;;;;;200.45;86.78;;;;;;;0.01;77.40;98854.23;2193971;80;27707;-71
2021/12/10 07:14:17;;;;;;;143.15;65.32;;;;;;;-0.02;77.61;98852.09;2202036;80;33651;-75
2021/12/10 07:17:19;;;;;;;199.35;83.12;;;;;;;-0.01;77.54;98853.82;2197353;80;30967;-72
2021/12/10 07:20:24;;;;;;;194.28;83.92;;;;;;;-0.01;77.56;98854.28;2209683;80;33000;-75
2021/12/10 07:23:26;;;;;;;189.87;80.67;;;;;;;-0.04;77.49;98854.38;2209255;80;30919;-75
2021/12/10 07:26:30;;;;;;;189.70;82.10;;;;;;;-0.07;77.31;98864.52;2217804;80;27509;-74
2021/12/10 07:29:33;;;;;;;179.18;81.37;;;;;;;-0.08;77.51;98868.53;2209089;80;28652;-77
2021/12/10 07:32:37;;;;;;;194.82;85.72;;;;;;;-0.02;77.72;98876.25;2180352;81;31060;-65
2021/12/10 07:35:39;;;;;;;199.27;81.80;;;;;;;0.04;77.69;98872.10;2182742;80;32993;-70
2021/12/10 07:38:41;;;;;;;195.32;84.00;;;;;;;0.06;77.40;98873.39;2190127;80;29863;-75
2021/12/10 07:41:43;;;;;;;196.20;84.17;;;;;;;0.06;77.38;98871.61;2181339;80;27670;-72
2021/12/10 07:44:45;;;;;;;188.75;85.25;;;;;;;0.06;77.17;98870.77;2181399;81;28645;-70
2021/12/10 07:47:49;;;;;;;190.92;82.40;;;;;;;0.13;77.46;98873.59;2182286;80;31862;-71
2021/12/10 07:50:58;;;;;;;204.63;84.77;;;;;;;0.13;77.14;98873.16;2184572;81;33115;-69
2021/12/10 07:54:01;;;;;;;210.48;86.92;;;;;;;0.11;77.03;98863.13;2197865;80;30208;-58
2021/12/10 07:57:04;;;;;;;203.92;87.70;;;;;;;0.13;77.15;98857.36;2155964;81;27688;-62
2021/12/10 08:00:11;;;;;;;209.25;94.83;;;;;;;0.23;77.15;98857.95;2165628;81;29051;-69
2021/12/10 08:03:13;;;;;;;184.93;83.87;;;;;;;0.29;77.11;98854.25;2182918;81;31009;-66
2021/12/10 08:06:17;;;;;;;196.18;87.53;;;;;;;0.37;76.97;98852.70;2169498;81;34126;-72
2021/12/10 08:09:19;;;;;;;196.40;88.30;;;;;;;0.38;76.88;98851.80;2165750;81;30484;-73
2021/12/10 08:12:30;;;;;;;191.70;87.47;;;;;;;0.45;77.00;98850.67;2135766;82;27712;-72
2021/12/10 08:15:33;;;;;;;196.87;87.50;;;;;;;0.54;76.87;98844.24;2118648;82;29396;-83
2021/12/10 08:18:35;;;;;;;200.45;87.88;;;;;;;0.59;76.83;98844.50;2147717;82;30620;-81
2021/12/10 08:21:38;;;;;;;199.38;87.35;;;;;;;0.63;76.68;98853.62;2164264;81;33410;-73
2021/12/10 08:24:41;;;;;;;196.40;86.75;;;;;;;0.70;76.92;98851.21;2163389;80;29603;-74
2021/12/10 08:27:43;;;;;;;204.00;88.00;;;;;;;0.81;76.83;98850.86;2162195;80;28300;-70
2021/12/10 08:30:46;;;;;;;189.75;84.97;;;;;;;0.88;76.81;98854.56;2164895;81;29932;-79
2021/12/10 08:33:49;;;;;;;201.37;86.92;;;;;;;0.94;76.62;98856.13;2165560;81;32250;-76
2021/12/10 08:36:51;;;;;;;194.13;85.32;;;;;;;0.99;76.36;98859.91;2165473;82;33860;-73
2021/12/10 08:39:52;;;;;;;183.97;85.22;;;;;;;1.03;76.52;98864.18;2163215;82;30467;-64
2021/12/10 08:42:54;;;;;;;181.55;85.90;;;;;;;1.14;76.44;98863.81;2163616;81;27730;-64
2021/12/10 08:45:58;;;;;;;190.10;86.87;;;;;;;1.23;76.41;98863.95;2161585;82;30087;-64
2021/12/10 08:49:09;;;;;;;177.82;81.22;;;;;;;1.34;76.49;98856.52;2146512;82;31990;-69
2021/12/10 08:52:12;;;;;;;178.53;83.42;;;;;;;1.44;76.19;98851.78;2139655;82;34144;-67
2021/12/10 08:55:17;;;;;;;184.45;81.57;;;;;;;1.52;76.12;98848.39;2163545;80;29670;-72
2021/12/10 08:58:20;;;;;;;184.85;85.67;;;;;;;1.60;75.90;98853.39;2165445;82;27661;-60
2021/12/10 09:01:28;;;;;;;190.18;87.35;;;;;;;1.72;76.04;98853.41;2164677;82;28662;-63
2021/12/10 09:04:33;;;;;;;178.12;83.52;;;;;;;1.85;76.24;98850.70;2144192;82;31504;-64
2021/12/10 09:07:35;;;;;;;132.47;60.48;;;;;;;1.98;75.85;98844.52;2163935;82;33025;-64
2021/12/10 09:10:40;;;;;;;182.82;82.78;;;;;;;2.08;75.65;98842.38;2166315;82;29788;-68
2021/12/10 09:13:44;;;;;;;158.52;78.50;;;;;;;2.12;75.29;98842.20;2163602;80;27625;-74
2021/12/10 09:16:48;;;;;;;162.65;76.70;;;;;;;2.10;75.20;98837.91;2159547;82;29098;-67
2021/12/10 09:19:52;;;;;;;163.28;77.42;;;;;;;2.27;75.42;98839.43;2123264;83;31213;-62
2021/12/10 09:22:55;;;;;;;146.87;70.70;;;;;;;2.43;75.42;98827.77;2102305;84;33000;-60
2021/12/10 09:26:02;;;;;;;158.85;74.32;;;;;;;2.52;74.98;98832.31;2144722;82;30529;-59
2021/12/10 09:29:07;;;;;;;147.65;70.00;;;;;;;2.53;74.83;98827.42;2123360;82;27711;-62
2021/12/10 09:32:14;;;;;;;144.45;70.28;;;;;;;2.51;74.39;98824.82;2142789;82;29723;-63
2021/12/10 09:35:21;;;;;;;147.68;70.80;;;;;;;2.56;74.49;98831.27;2146391;82;32239;-59
2021/12/10 09:38:24;;;;;;;132.25;63.98;;;;;;;2.64;74.68;98830.95;2111002;82;33733;-66
2021/12/10 09:41:27;;;;;;;130.65;64.60;;;;;;;2.71;74.31;98826.67;2167155;81;29340;-60
2021/12/10 09:44:29;;;;;;;122.22;63.73;;;;;;;2.77;74.23;98826.00;2142689;83;27621;-65
2021/12/10 09:47:34;;;;;;;134.87;62.03;;;;;;;2.85;74.32;98829.20;2136742;82;30035;-68
2021/12/10 09:50:42;;;;;;;;;;;;;;;2.83;73.62;98840.30;2129436;82;30812;-68
2021/12/10 09:53:48;;;;;;;122.92;60.58;;;;;;;2.74;73.08;98833.61;2155967;81;32351;-63
2021/12/10 09:56:58;;;;;;;112.00;57.13;;;;;;;2.71;73.88;98835.92;2159581;82;30509;-70
2021/12/10 10:00:04;;;;;;;124.97;62.15;;;;;;;2.79;73.20;98826.35;2154020;82;27742;-71
2021/12/10 10:03:10;;;;;;;118.55;61.37;;;;;;;2.82;73.54;98823.55;2132234;82;28713;-69
2021/12/10 10:06:14;;;;;;;137.37;67.78;;;;;;;2.86;73.66;98832.24;2133074;81;31004;-66
2021/12/10 10:09:18;;;;;;;120.22;59.80;;;;;;;2.95;73.68;98823.91;2141068;82;33813;-60
2021/12/10 10:12:25;;;;;;;111.90;55.03;;;;;;;3.03;73.15;98820.94;2174001;81;29357;-65
2021/12/10 10:15:31;;;;;;;96.92;50.83;;;;;;;3.06;72.83;98821.29;2171589;81;27769;-65
2021/12/10 10:18:36;;;;;;;102.15;53.83;;;;;;;3.14;72.91;98816.52;2173321;81;28913;-64
2021/12/10 10:21:43;;;;;;;98.45;49.45;;;;;;;3.26;73.41;98810.67;2136323;83;31043;-63
2021/12/10 10:24:46;;;;;;;100.53;51.42;;;;;;;3.41;73.31;98800.33;2176076;81;33836;-74
2021/12/10 10:27:49;;;;;;;95.50;49.20;;;;;;;3.53;73.06;98806.43;2137368;83;29449;-63
2021/12/10 10:30:59;;;;;;;85.70;45.23;;;;;;;3.63;73.21;98804.23;2118945;82;27746;-61
2021/12/10 10:34:11;;;;;;;86.90;45.63;;;;;;;3.70;72.71;98794.20;2164616;81;29682;-69
2021/12/10 10:37:18;;;;;;;84.32;46.00;;;;;;;3.75;72.48;98795.71;2148684;82;31843;-64
2021/12/10 10:40:25;;;;;;;85.28;44.70;;;;;;;3.90;73.06;98794.60;2166437;81;33945;-72
2021/12/10 10:43:29;;;;;;;109.72;57.98;;;;;;;4.06;72.77;98790.30;2121532;83;29488;-69
2021/12/10 10:46:32;;;;;;;90.45;46.75;;;;;;;4.20;72.66;98787.45;2146280;82;27741;-67
2021/12/10 10:49:49;;;;;;;84.10;42.98;;;;;;;4.27;72.16;98780.94;2160862;81;28863;-77
2021/12/10 10:52:56;;;;;;;82.70;43.80;;;;;;;4.30;71.35;98787.88;2174820;81;32247;-66
2021/12/10 10:56:08;;;;;;;73.67;40.88;;;;;;;4.30;71.71;98787.42;2172008;81;34207;-66
2021/12/10 10:59:25;;;;;;;81.05;43.00;;;;;;;4.35;71.67;98789.84;2182058;81;28883;-66
2021/12/10 11:02:31;;;;;;;86.40;46.77;;;;;;;4.39;71.48;98784.76;2130939;82;27697;-67
2021/12/10 11:05:35;;;;;;;77.92;41.73;;;;;;;4.45;71.81;98776.52;2171260;81;29120;-64
2021/12/10 11:08:44;;;;;;;74.43;40.97;;;;;;;4.49;71.63;98773.23;2164516;82;32418;-60
2021/12/10 11:11:51;;;;;;;78.62;42.73;;;;;;;4.47;71.46;98773.33;2159338;82;33879;-63
2021/12/10 11:14:56;;;;;;;75.00;41.33;;;;;;;4.56;71.87;98780.81;2123324;83;29295;-66
2021/12/10 11:18:00;;;;;;;70.35;38.83;;;;;;;4.66;71.18;98772.41;2142180;82;27739;-69
2021/12/10 11:21:01;;;;;;;73.75;37.05;;;;;;;4.65;70.86;98772.86;2123385;83;29534;-75
2021/12/10 11:24:26;;;;;;;71.45;38.75;;;;;;;4.59;70.05;98767.02;2169416;81;32219;-75
2021/12/10 11:27:35;;;;;;;75.78;41.35;;;;;;;4.56;70.88;98764.05;2169782;82;32958;-78
2021/12/10 11:30:45;;;;;;;79.15;44.50;;;;;;;4.62;70.67;98763.77;2170118;81;29393;-68
2021/12/10 11:33:51;;;;;;;87.25;45.70;;;;;;;4.66;70.89;98760.48;2169465;82;27626;-70
2021/12/10 11:36:53;;;;;;;78.78;44.48;;;;;;;4.68;70.80;98748.00;2169719;82;28583;-64
2021/12/10 11:39:55;;;;;;;85.00;45.08;;;;;;;4.73;70.49;98745.11;2163693;81;32255;-61
2021/12/10 11:43:04;;;;;;;85.60;45.00;;;;;;;4.80;70.00;98750.50;2152338;82;33802;-67
2021/12/10 11:49:38;;;;;;;86.25;45.92;;;;;;;4.77;69.70;98749.33;2165205;82;27711;-61
2021/12/10 11:52:38;;;;;;;82.00;46.15;;;;;;;4.75;69.88;98750.72;2165750;82;28684;-69
2021/12/10 11:56:10;;;;;;;96.55;49.60;;;;;;;4.74;69.47;98750.33;2137625;82;31481;-60
2021/12/10 11:59:19;;;;;;;81.95;42.70;;;;;;;4.69;69.76;98741.77;2169412;82;34236;-59
2021/12/10 12:02:30;;;;;;;77.58;42.88;;;;;;;4.59;69.32;98736.52;2173740;81;30692;-60
2021/12/10 12:05:40;;;;;;;75.75;40.20;;;;;;;4.45;69.51;98736.74;2164169;81;27709;-59
2021/12/10 12:08:42;;;;;;;77.22;40.28;;;;;;;4.32;69.55;98737.81;2189296;81;28690;-59
2021/12/10 12:11:49;;;;;;;74.47;41.23;;;;;;;4.13;69.19;98739.67;2189229;81;31692;-60
2021/12/10 12:14:54;;;;;;;76.50;39.63;;;;;;;3.91;69.57;98739.36;2184917;79;32785;-57
2021/12/10 12:18:06;;;;;;;80.77;41.98;;;;;;;3.77;69.58;98738.23;2189504;81;29335;-63
2021/12/10 12:28:10;;;;;;;76.02;40.78;;;;;;;3.34;70.26;98745.49;2188958;81;32216;-60
2021/12/10 12:31:23;;;;;;;76.62;38.45;;;;;;;3.24;70.46;98741.55;2189460;80;33794;-60
2021/12/10 12:34:28;;;;;;;79.62;39.78;;;;;;;3.16;70.68;98744.06;2186794;81;30641;-59
2021/12/10 12:37:30;;;;;;;83.72;46.13;;;;;;;3.09;70.69;98743.95;2193326;80;27672;-59
2021/12/10 12:40:32;;;;;;;86.15;44.15;;;;;;;2.97;70.82;98745.34;2193066;80;29894;-59
2021/12/10 12:43:34;;;;;;;85.53;44.45;;;;;;;2.88;71.07;98745.77;2189186;80;32247;-60
2021/12/10 12:47:00;;;;;;;82.70;45.60;;;;;;;2.82;71.10;98754.80;2188396;81;34179;-63
2021/12/10 12:50:24;;;;;;;89.42;45.50;;;;;;;2.78;71.26;98757.64;2189439;80;43751;-59
2021/12/10 12:53:30;;;;;;;79.20;41.55;;;;;;;2.70;71.37;98762.81;2189658;81;27643;-59
2021/12/10 12:56:38;;;;;;;85.17;43.63;;;;;;;2.67;71.41;98760.73;2189633;81;28675;-60
2021/12/10 12:59:36;;;;;;;76.30;40.55;;;;;;;2.65;71.54;98770.06;2188146;80;32414;-62
2021/12/10 13:02:40;;;;;;;86.42;42.98;;;;;;;2.62;71.58;98767.55;2186445;80;32967;-60
2021/12/10 13:05:50;;;;;;;74.07;40.63;;;;;;;2.58;71.62;98773.44;2143949;83;30534;-59
2021/12/10 13:09:24;;;;;;;83.42;41.92;;;;;;;2.56;71.63;98772.63;2062475;85;27933;-61
2021/12/10 13:13:06;;;;;;;75.08;39.40;;;;;;;2.53;71.72;98778.05;2073719;84;29057;-68
2021/12/10 13:15:52;;;;;;;82.22;40.33;;;;;;;2.47;71.60;98784.05;2104914;84;31736;-67
2021/12/10 13:18:54;;;;;;;87.65;47.45;;;;;;;2.40;71.75;98775.03;2107850;84;34321;-69
2021/12/10 13:22:06;;;;;;;73.87;38.60;;;;;;;2.36;71.70;98778.75;2108048;84;30518;-67
2021/12/10 13:25:12;;;;;;;79.90;40.48;;;;;;;2.31;71.69;98783.35;2099447;84;27743;-69
2021/12/10 13:28:14;;;;;;;82.72;39.65;;;;;;;2.28;71.82;98781.70;2098020;84;28681;-69
2021/12/10 13:31:19;;;;;;;81.00;39.08;;;;;;;2.25;71.84;98777.86;2097838;84;31494;-66
2021/12/10 13:34:21;;;;;;;;;;;;;;;2.22;71.93;98785.90;2100616;84;33086;-66
2021/12/10 13:37:24;;;;;;;75.22;40.30;;;;;;;2.22;72.01;98785.05;2098042;84;29554;-69
2021/12/10 13:40:28;;;;;;;70.85;37.25;;;;;;;2.18;72.03;98781.65;2106649;84;27647;-67
2021/12/10 13:43:32;;;;;;;72.53;40.38;;;;;;;2.16;71.94;98782.64;2108346;84;29588;-69
2021/12/10 13:46:45;;;;;;;71.65;38.35;;;;;;;2.13;71.98;98781.84;2150938;82;31568;-62
2021/12/10 13:49:55;;;;;;;71.47;35.43;;;;;;;2.10;71.98;98781.95;2170906;82;32992;-67
2021/12/10 13:53:07;;;;;;;62.30;32.98;;;;;;;2.09;72.04;98778.91;2171100;82;29350;-66
2021/12/10 13:56:12;;;;;;;62.20;32.48;;;;;;;2.06;71.99;98779.50;2118464;84;27709;-69
2021/12/10 13:59:15;;;;;;;72.12;37.98;;;;;;;2.02;71.99;98777.89;2157481;82;28654;-67
2021/12/10 14:02:16;;;;;;;69.72;36.50;;;;;;;1.99;72.05;98780.69;2111931;82;31070;-65
2021/12/10 14:05:26;;;;;;;63.80;35.63;;;;;;;1.93;72.02;98785.27;2118384;82;34173;-69
2021/12/10 14:08:28;;;;;;;69.50;37.80;;;;;;;1.87;72.03;98792.58;2179227;80;29369;-68
2021/12/10 14:11:50;;;;;;;63.40;35.98;;;;;;;1.79;72.10;98797.67;2178990;80;27722;-60
2021/12/10 14:14:38;;;;;;;66.07;37.13;;;;;;;1.74;72.21;98796.14;2196726;80;29039;-64
2021/12/10 14:18:02;;;;;;;74.87;39.85;;;;;;;1.66;72.27;98795.11;2222146;79;31169;-69
2021/12/10 14:21:18;;;;;;;66.80;37.15;;;;;;;1.61;72.38;98790.01;2194917;81;34182;-64
2021/12/10 14:24:46;;;;;;;76.40;38.65;;;;;;;1.53;72.44;98797.81;2185614;81;30590;-61
2021/12/10 14:27:54;;;;;;;75.28;38.92;;;;;;;1.45;72.57;98792.34;2185778;80;27578;-69
2021/12/10 14:30:57;;;;;;;81.53;41.77;;;;;;;1.37;72.66;98791.77;2185168;80;29567;-70
2021/12/10 14:34:08;;;;;;;79.00;41.10;;;;;;;1.30;72.82;98787.63;2197212;80;31107;-65